Ana Sayfa
METAR-TAF:

METAR-TAF

Havaalanları :

Austin-Bergstrom Uluslararası Havalimanı

Austin, Teksas, Amerika Birleşik Devletleri

Enlem: 30-11-40N, Boylam: 097-40-12W, yükseklik: 165 m

Güncel hava durumu gözlemi

Rapor saat 03:53 UTC de 37 dakika önce yapıldı.
Rüzgar kuzey/kuzeydoğudan 12 kt
Sıcaklık 14°C
Nem 58%
Basınç 1026 hPa
Görüş mesafesi: 16.1 km
25000 ft yükseklikte parçalı bulutlu

METAR: KAUS 070353Z 02012KT 10SM SCT250 14/06 A3029 RMK AO2 SLP253 T01440056

Saat: 22:30 (04:30 UTC)

Tahmin

Rapor saat 23:33 UTC de 4 saat ve 57 dakika önce yapıldı.
Ayın 07'si saat 00 UTC'den ayın 08'si saat 06 UTC'ye kadar geçerli Tahmin
Rüzgar kuzeydan 8 kt
Görüş mesafesi: 10 km
25000 ft yükseklikte parçalı bulutlu
Ayın 07'si saat 2100 UTC'den
Rüzgar doğu/güneydoğudan 6 kt
Görüş mesafesi: 10 km
3000 ft yükseklikte az bulutlu
25000 ft yükseklikte parçalı bulutlu

TAF: KAUS 062333Z 0700/0806 36008KT P6SM SCT250 FM072100 12006KT P6SM FEW030 SCT250

4.000'den fazla havaalanı için hava durumu gözlemleri ve tahminleri (METAR ve TAF raporları).

Kullanılabilir istasyonlar harita üzerinde sarı ve kırmızı noktalarla gösterilir.

İstasyonun adını görmek için fareyi noktanın üzerinde gezdirin.

Sonrasında hava gözlem ve tahminlerini görmek için tıklayın.

Haritayı değiştirmek için: yaklaştırmak için siyah artı işaretli yeşil düğmeye ve uzaklaştırmak için de eksi işaretli düğmeye hızla tıklayın; bitişik haritalar için yeşil okları kullanın.


METAR-TAF: